sensor_id;sensor_type;location;lat;lon;timestamp;P1;durP1;ratioP1;P2;durP2;ratioP2
4391;SDS011;2210;51.938;8.488;2024-03-07T00:01:13;10.80;;;9.17;;
4391;SDS011;2210;51.938;8.488;2024-03-07T00:05:13;13.03;;;9.13;;
4391;SDS011;2210;51.938;8.488;2024-03-07T00:09:20;10.93;;;8.83;;
4391;SDS011;2210;51.938;8.488;2024-03-07T00:13:24;11.13;;;9.10;;
4391;SDS011;2210;51.938;8.488;2024-03-07T00:17:24;15.90;;;9.13;;
4391;SDS011;2210;51.938;8.488;2024-03-07T00:21:25;12.00;;;9.65;;
4391;SDS011;2210;51.938;8.488;2024-03-07T00:25:25;12.47;;;9.37;;
4391;SDS011;2210;51.938;8.488;2024-03-07T00:29:26;11.33;;;8.80;;
4391;SDS011;2210;51.938;8.488;2024-03-07T00:33:28;12.13;;;8.53;;
4391;SDS011;2210;51.938;8.488;2024-03-07T00:37:28;11.37;;;9.03;;
4391;SDS011;2210;51.938;8.488;2024-03-07T00:41:30;9.90;;;8.30;;
4391;SDS011;2210;51.938;8.488;2024-03-07T00:45:31;11.03;;;8.60;;
4391;SDS011;2210;51.938;8.488;2024-03-07T00:49:32;13.10;;;9.17;;
4391;SDS011;2210;51.938;8.488;2024-03-07T00:53:32;12.80;;;8.13;;
4391;SDS011;2210;51.938;8.488;2024-03-07T00:57:33;11.60;;;8.43;;
4391;SDS011;2210;51.938;8.488;2024-03-07T01:01:33;11.80;;;8.60;;
4391;SDS011;2210;51.938;8.488;2024-03-07T01:05:39;14.70;;;9.80;;
4391;SDS011;2210;51.938;8.488;2024-03-07T01:09:43;10.27;;;8.07;;
4391;SDS011;2210;51.938;8.488;2024-03-07T01:13:43;12.80;;;9.57;;
4391;SDS011;2210;51.938;8.488;2024-03-07T01:17:44;11.03;;;8.57;;
4391;SDS011;2210;51.938;8.488;2024-03-07T01:21:44;11.40;;;9.33;;
4391;SDS011;2210;51.938;8.488;2024-03-07T01:25:45;16.43;;;8.80;;
4391;SDS011;2210;51.938;8.488;2024-03-07T01:29:48;15.43;;;9.25;;
4391;SDS011;2210;51.938;8.488;2024-03-07T01:33:51;13.80;;;9.40;;
4391;SDS011;2210;51.938;8.488;2024-03-07T01:37:52;12.47;;;8.77;;
4391;SDS011;2210;51.938;8.488;2024-03-07T01:41:52;13.27;;;9.20;;
4391;SDS011;2210;51.938;8.488;2024-03-07T01:45:53;12.10;;;8.97;;
4391;SDS011;2210;51.938;8.488;2024-03-07T01:49:56;13.00;;;9.77;;
4391;SDS011;2210;51.938;8.488;2024-03-07T01:53:56;10.57;;;8.30;;
4391;SDS011;2210;51.938;8.488;2024-03-07T01:57:57;11.27;;;9.00;;
4391;SDS011;2210;51.938;8.488;2024-03-07T02:01:59;12.30;;;9.30;;
4391;SDS011;2210;51.938;8.488;2024-03-07T02:06:05;10.53;;;7.90;;
4391;SDS011;2210;51.938;8.488;2024-03-07T02:10:12;11.10;;;8.33;;
4391;SDS011;2210;51.938;8.488;2024-03-07T02:14:12;10.47;;;8.70;;
4391;SDS011;2210;51.938;8.488;2024-03-07T02:18:15;11.50;;;8.80;;
4391;SDS011;2210;51.938;8.488;2024-03-07T02:22:16;12.23;;;8.73;;
4391;SDS011;2210;51.938;8.488;2024-03-07T02:26:17;11.77;;;9.20;;
4391;SDS011;2210;51.938;8.488;2024-03-07T02:30:18;10.10;;;8.50;;
4391;SDS011;2210;51.938;8.488;2024-03-07T02:34:22;9.30;;;7.90;;
4391;SDS011;2210;51.938;8.488;2024-03-07T02:38:22;11.17;;;8.50;;
4391;SDS011;2210;51.938;8.488;2024-03-07T02:42:22;12.90;;;8.80;;
4391;SDS011;2210;51.938;8.488;2024-03-07T02:46:23;11.30;;;8.85;;
4391;SDS011;2210;51.938;8.488;2024-03-07T02:50:23;12.30;;;8.20;;
4391;SDS011;2210;51.938;8.488;2024-03-07T02:54:23;10.37;;;8.30;;
4391;SDS011;2210;51.938;8.488;2024-03-07T02:58:23;9.17;;;8.07;;
4391;SDS011;2210;51.938;8.488;2024-03-07T03:02:24;9.07;;;7.93;;
4391;SDS011;2210;51.938;8.488;2024-03-07T03:06:24;12.03;;;8.23;;
4391;SDS011;2210;51.938;8.488;2024-03-07T03:10:25;10.17;;;7.77;;
4391;SDS011;2210;51.938;8.488;2024-03-07T03:14:28;11.67;;;9.37;;
4391;SDS011;2210;51.938;8.488;2024-03-07T03:18:28;10.07;;;8.63;;
4391;SDS011;2210;51.938;8.488;2024-03-07T03:22:32;11.68;;;8.18;;
4391;SDS011;2210;51.938;8.488;2024-03-07T03:26:32;11.90;;;9.20;;
4391;SDS011;2210;51.938;8.488;2024-03-07T03:30:32;12.40;;;9.30;;
4391;SDS011;2210;51.938;8.488;2024-03-07T03:34:33;12.95;;;8.98;;
4391;SDS011;2210;51.938;8.488;2024-03-07T03:38:39;11.67;;;9.03;;
4391;SDS011;2210;51.938;8.488;2024-03-07T03:42:45;13.50;;;9.40;;
4391;SDS011;2210;51.938;8.488;2024-03-07T03:46:46;11.73;;;8.90;;
4391;SDS011;2210;51.938;8.488;2024-03-07T03:50:49;13.07;;;9.15;;
4391;SDS011;2210;51.938;8.488;2024-03-07T03:54:52;12.40;;;10.07;;
4391;SDS011;2210;51.938;8.488;2024-03-07T03:58:58;13.53;;;10.07;;
4391;SDS011;2210;51.938;8.488;2024-03-07T04:02:58;13.47;;;9.90;;
4391;SDS011;2210;51.938;8.488;2024-03-07T04:06:59;11.77;;;8.98;;
4391;SDS011;2210;51.938;8.488;2024-03-07T04:11:05;14.75;;;10.20;;
4391;SDS011;2210;51.938;8.488;2024-03-07T04:15:13;13.33;;;9.60;;
4391;SDS011;2210;51.938;8.488;2024-03-07T04:19:17;11.40;;;8.87;;
4391;SDS011;2210;51.938;8.488;2024-03-07T04:23:20;12.23;;;9.33;;
4391;SDS011;2210;51.938;8.488;2024-03-07T04:27:20;12.73;;;9.50;;
4391;SDS011;2210;51.938;8.488;2024-03-07T04:31:25;12.87;;;9.30;;
4391;SDS011;2210;51.938;8.488;2024-03-07T04:35:26;11.90;;;9.37;;
4391;SDS011;2210;51.938;8.488;2024-03-07T04:39:26;11.85;;;9.43;;
4391;SDS011;2210;51.938;8.488;2024-03-07T04:43:32;11.70;;;9.10;;
4391;SDS011;2210;51.938;8.488;2024-03-07T04:47:33;11.63;;;9.03;;
4391;SDS011;2210;51.938;8.488;2024-03-07T04:51:33;17.05;;;9.98;;
4391;SDS011;2210;51.938;8.488;2024-03-07T04:55:39;11.68;;;9.27;;
4391;SDS011;2210;51.938;8.488;2024-03-07T04:59:43;13.17;;;10.30;;
4391;SDS011;2210;51.938;8.488;2024-03-07T05:03:52;12.03;;;8.30;;
4391;SDS011;2210;51.938;8.488;2024-03-07T05:07:52;11.17;;;8.97;;
4391;SDS011;2210;51.938;8.488;2024-03-07T05:12:02;11.20;;;9.47;;
4391;SDS011;2210;51.938;8.488;2024-03-07T05:16:03;13.80;;;9.30;;
4391;SDS011;2210;51.938;8.488;2024-03-07T05:20:03;10.67;;;9.20;;
4391;SDS011;2210;51.938;8.488;2024-03-07T05:24:09;14.40;;;8.77;;
4391;SDS011;2210;51.938;8.488;2024-03-07T05:28:10;14.95;;;9.40;;
4391;SDS011;2210;51.938;8.488;2024-03-07T05:36:23;9.53;;;7.90;;
4391;SDS011;2210;51.938;8.488;2024-03-07T05:40:24;14.17;;;9.30;;
4391;SDS011;2210;51.938;8.488;2024-03-07T05:44:24;12.00;;;8.50;;
4391;SDS011;2210;51.938;8.488;2024-03-07T05:48:24;12.73;;;9.35;;
4391;SDS011;2210;51.938;8.488;2024-03-07T05:52:24;11.85;;;8.80;;
4391;SDS011;2210;51.938;8.488;2024-03-07T05:56:25;13.13;;;9.07;;
4391;SDS011;2210;51.938;8.488;2024-03-07T06:00:25;13.00;;;9.23;;
4391;SDS011;2210;51.938;8.488;2024-03-07T06:04:27;13.53;;;8.90;;
4391;SDS011;2210;51.938;8.488;2024-03-07T06:08:29;13.33;;;9.07;;
4391;SDS011;2210;51.938;8.488;2024-03-07T06:12:32;13.40;;;9.02;;
4391;SDS011;2210;51.938;8.488;2024-03-07T06:16:39;12.43;;;8.57;;
4391;SDS011;2210;51.938;8.488;2024-03-07T06:20:47;13.70;;;9.50;;
4391;SDS011;2210;51.938;8.488;2024-03-07T06:24:48;12.57;;;8.30;;
4391;SDS011;2210;51.938;8.488;2024-03-07T06:28:48;11.90;;;9.13;;
4391;SDS011;2210;51.938;8.488;2024-03-07T06:32:51;11.33;;;8.10;;
4391;SDS011;2210;51.938;8.488;2024-03-07T06:36:51;11.33;;;9.03;;
4391;SDS011;2210;51.938;8.488;2024-03-07T06:40:52;11.00;;;8.10;;
4391;SDS011;2210;51.938;8.488;2024-03-07T06:44:52;10.20;;;7.77;;
4391;SDS011;2210;51.938;8.488;2024-03-07T06:48:52;12.73;;;8.80;;
4391;SDS011;2210;51.938;8.488;2024-03-07T06:52:53;12.47;;;9.30;;
4391;SDS011;2210;51.938;8.488;2024-03-07T06:56:54;11.60;;;7.80;;
4391;SDS011;2210;51.938;8.488;2024-03-07T07:00:54;14.70;;;9.95;;
4391;SDS011;2210;51.938;8.488;2024-03-07T07:04:54;12.27;;;7.80;;
4391;SDS011;2210;51.938;8.488;2024-03-07T07:08:54;14.43;;;9.57;;
4391;SDS011;2210;51.938;8.488;2024-03-07T07:12:55;15.13;;;9.18;;
4391;SDS011;2210;51.938;8.488;2024-03-07T07:16:55;13.37;;;9.40;;
4391;SDS011;2210;51.938;8.488;2024-03-07T07:20:59;12.83;;;9.20;;
4391;SDS011;2210;51.938;8.488;2024-03-07T07:25:03;14.03;;;9.10;;
4391;SDS011;2210;51.938;8.488;2024-03-07T07:29:07;11.53;;;8.50;;
4391;SDS011;2210;51.938;8.488;2024-03-07T07:33:08;13.53;;;8.97;;
4391;SDS011;2210;51.938;8.488;2024-03-07T07:37:08;11.57;;;8.98;;
4391;SDS011;2210;51.938;8.488;2024-03-07T07:41:09;12.10;;;9.17;;
4391;SDS011;2210;51.938;8.488;2024-03-07T07:45:10;15.73;;;8.90;;
4391;SDS011;2210;51.938;8.488;2024-03-07T07:49:11;15.07;;;9.47;;
4391;SDS011;2210;51.938;8.488;2024-03-07T07:53:11;12.53;;;9.63;;
4391;SDS011;2210;51.938;8.488;2024-03-07T07:57:12;12.77;;;9.40;;
4391;SDS011;2210;51.938;8.488;2024-03-07T08:01:12;13.68;;;9.45;;
4391;SDS011;2210;51.938;8.488;2024-03-07T08:05:14;17.17;;;9.27;;
4391;SDS011;2210;51.938;8.488;2024-03-07T08:09:17;14.67;;;9.93;;
4391;SDS011;2210;51.938;8.488;2024-03-07T08:13:18;13.93;;;9.90;;
4391;SDS011;2210;51.938;8.488;2024-03-07T08:17:21;12.23;;;9.00;;
4391;SDS011;2210;51.938;8.488;2024-03-07T08:21:21;15.40;;;10.07;;
4391;SDS011;2210;51.938;8.488;2024-03-07T08:25:24;14.63;;;10.40;;
4391;SDS011;2210;51.938;8.488;2024-03-07T08:29:26;13.50;;;10.10;;
4391;SDS011;2210;51.938;8.488;2024-03-07T08:33:26;16.08;;;11.82;;
4391;SDS011;2210;51.938;8.488;2024-03-07T08:37:26;15.57;;;9.52;;
4391;SDS011;2210;51.938;8.488;2024-03-07T08:41:26;14.70;;;10.77;;
4391;SDS011;2210;51.938;8.488;2024-03-07T08:45:27;14.15;;;9.38;;
4391;SDS011;2210;51.938;8.488;2024-03-07T08:49:28;17.00;;;9.83;;
4391;SDS011;2210;51.938;8.488;2024-03-07T08:53:32;11.80;;;9.40;;
4391;SDS011;2210;51.938;8.488;2024-03-07T08:57:33;15.20;;;11.20;;
4391;SDS011;2210;51.938;8.488;2024-03-07T09:01:33;17.55;;;11.18;;
4391;SDS011;2210;51.938;8.488;2024-03-07T09:05:34;13.00;;;9.67;;
4391;SDS011;2210;51.938;8.488;2024-03-07T09:09:34;14.48;;;9.98;;
4391;SDS011;2210;51.938;8.488;2024-03-07T09:13:34;16.13;;;10.30;;
4391;SDS011;2210;51.938;8.488;2024-03-07T09:17:35;14.10;;;10.23;;
4391;SDS011;2210;51.938;8.488;2024-03-07T09:21:36;23.63;;;10.90;;
4391;SDS011;2210;51.938;8.488;2024-03-07T09:25:37;13.90;;;8.93;;
4391;SDS011;2210;51.938;8.488;2024-03-07T09:29:37;10.30;;;7.50;;
4391;SDS011;2210;51.938;8.488;2024-03-07T09:33:37;14.30;;;8.55;;
4391;SDS011;2210;51.938;8.488;2024-03-07T09:37:40;13.33;;;9.60;;
4391;SDS011;2210;51.938;8.488;2024-03-07T09:41:42;13.17;;;8.93;;
4391;SDS011;2210;51.938;8.488;2024-03-07T09:45:43;15.20;;;10.67;;
4391;SDS011;2210;51.938;8.488;2024-03-07T09:49:46;14.60;;;8.80;;
4391;SDS011;2210;51.938;8.488;2024-03-07T09:53:48;17.10;;;10.37;;
4391;SDS011;2210;51.938;8.488;2024-03-07T09:57:49;13.27;;;9.73;;
4391;SDS011;2210;51.938;8.488;2024-03-07T10:01:56;13.40;;;9.27;;
4391;SDS011;2210;51.938;8.488;2024-03-07T10:06:06;17.77;;;10.43;;
4391;SDS011;2210;51.938;8.488;2024-03-07T10:10:09;20.80;;;11.53;;
4391;SDS011;2210;51.938;8.488;2024-03-07T10:14:15;15.57;;;10.20;;
4391;SDS011;2210;51.938;8.488;2024-03-07T10:18:15;13.83;;;9.17;;
4391;SDS011;2210;51.938;8.488;2024-03-07T10:22:15;16.17;;;9.90;;
4391;SDS011;2210;51.938;8.488;2024-03-07T10:26:15;18.92;;;11.18;;
4391;SDS011;2210;51.938;8.488;2024-03-07T10:30:17;17.73;;;10.63;;
4391;SDS011;2210;51.938;8.488;2024-03-07T10:34:21;18.33;;;11.60;;
4391;SDS011;2210;51.938;8.488;2024-03-07T10:38:23;17.30;;;11.17;;
4391;SDS011;2210;51.938;8.488;2024-03-07T10:42:24;15.13;;;9.40;;
4391;SDS011;2210;51.938;8.488;2024-03-07T10:46:37;16.90;;;10.97;;
4391;SDS011;2210;51.938;8.488;2024-03-07T10:50:41;19.80;;;10.93;;
4391;SDS011;2210;51.938;8.488;2024-03-07T10:59:19;17.70;;;11.20;;
4391;SDS011;2210;51.938;8.488;2024-03-07T11:03:20;19.03;;;11.17;;
4391;SDS011;2210;51.938;8.488;2024-03-07T11:07:24;18.43;;;10.90;;
4391;SDS011;2210;51.938;8.488;2024-03-07T11:11:25;20.20;;;11.00;;
4391;SDS011;2210;51.938;8.488;2024-03-07T11:15:25;19.70;;;9.07;;
4391;SDS011;2210;51.938;8.488;2024-03-07T11:19:27;14.73;;;9.50;;
4391;SDS011;2210;51.938;8.488;2024-03-07T11:23:30;17.30;;;10.40;;
4391;SDS011;2210;51.938;8.488;2024-03-07T11:27:36;16.87;;;10.10;;
4391;SDS011;2210;51.938;8.488;2024-03-07T11:31:42;14.30;;;8.50;;
4391;SDS011;2210;51.938;8.488;2024-03-07T11:35:49;15.97;;;9.47;;
4391;SDS011;2210;51.938;8.488;2024-03-07T11:39:50;16.23;;;9.10;;
4391;SDS011;2210;51.938;8.488;2024-03-07T11:43:53;14.63;;;8.70;;
4391;SDS011;2210;51.938;8.488;2024-03-07T11:47:55;14.40;;;9.60;;
4391;SDS011;2210;51.938;8.488;2024-03-07T11:52:18;14.60;;;8.60;;
4391;SDS011;2210;51.938;8.488;2024-03-07T11:56:22;18.57;;;9.83;;
4391;SDS011;2210;51.938;8.488;2024-03-07T12:00:22;15.20;;;8.90;;
4391;SDS011;2210;51.938;8.488;2024-03-07T12:04:24;22.93;;;9.37;;
4391;SDS011;2210;51.938;8.488;2024-03-07T12:08:38;14.80;;;10.00;;
4391;SDS011;2210;51.938;8.488;2024-03-07T12:12:39;14.10;;;8.10;;
4391;SDS011;2210;51.938;8.488;2024-03-07T12:16:39;15.80;;;9.43;;
4391;SDS011;2210;51.938;8.488;2024-03-07T12:20:40;14.40;;;10.13;;
4391;SDS011;2210;51.938;8.488;2024-03-07T12:24:42;16.70;;;10.50;;
4391;SDS011;2210;51.938;8.488;2024-03-07T12:28:42;15.83;;;8.73;;
4391;SDS011;2210;51.938;8.488;2024-03-07T12:32:47;14.00;;;9.00;;
4391;SDS011;2210;51.938;8.488;2024-03-07T12:36:51;19.23;;;10.20;;
4391;SDS011;2210;51.938;8.488;2024-03-07T12:41:07;20.03;;;11.77;;
4391;SDS011;2210;51.938;8.488;2024-03-07T12:45:13;16.70;;;9.00;;
4391;SDS011;2210;51.938;8.488;2024-03-07T12:49:21;17.17;;;9.83;;
4391;SDS011;2210;51.938;8.488;2024-03-07T12:53:27;14.50;;;8.00;;
4391;SDS011;2210;51.938;8.488;2024-03-07T12:57:38;14.70;;;9.23;;
4391;SDS011;2210;51.938;8.488;2024-03-07T13:01:40;17.53;;;9.03;;
4391;SDS011;2210;51.938;8.488;2024-03-07T13:05:47;17.40;;;9.37;;
4391;SDS011;2210;51.938;8.488;2024-03-07T13:09:48;15.10;;;9.20;;
4391;SDS011;2210;51.938;8.488;2024-03-07T13:13:48;16.90;;;9.90;;
4391;SDS011;2210;51.938;8.488;2024-03-07T13:17:49;18.03;;;9.93;;
4391;SDS011;2210;51.938;8.488;2024-03-07T13:22:02;16.50;;;8.70;;
4391;SDS011;2210;51.938;8.488;2024-03-07T13:26:05;15.87;;;7.27;;
4391;SDS011;2210;51.938;8.488;2024-03-07T13:30:19;18.90;;;7.90;;
4391;SDS011;2210;51.938;8.488;2024-03-07T13:34:27;18.63;;;9.20;;
4391;SDS011;2210;51.938;8.488;2024-03-07T13:38:28;17.77;;;9.90;;
4391;SDS011;2210;51.938;8.488;2024-03-07T13:42:29;15.80;;;9.50;;
4391;SDS011;2210;51.938;8.488;2024-03-07T13:46:39;16.10;;;8.98;;
4391;SDS011;2210;51.938;8.488;2024-03-07T13:50:52;11.43;;;8.17;;
4391;SDS011;2210;51.938;8.488;2024-03-07T13:55:00;14.40;;;8.23;;
4391;SDS011;2210;51.938;8.488;2024-03-07T14:12:24;18.03;;;9.43;;
4391;SDS011;2210;51.938;8.488;2024-03-07T14:16:44;14.03;;;8.23;;
4391;SDS011;2210;51.938;8.488;2024-03-07T14:30:40;18.23;;;11.67;;
4391;SDS011;2210;51.938;8.488;2024-03-07T14:34:48;15.23;;;10.23;;
4391;SDS011;2210;51.938;8.488;2024-03-07T14:38:57;18.30;;;10.43;;
4391;SDS011;2210;51.938;8.488;2024-03-07T14:42:59;14.47;;;9.53;;
4391;SDS011;2210;51.938;8.488;2024-03-07T14:47:05;19.50;;;10.57;;
4391;SDS011;2210;51.938;8.488;2024-03-07T14:51:07;19.00;;;9.63;;
4391;SDS011;2210;51.938;8.488;2024-03-07T14:55:09;25.20;;;10.87;;
4391;SDS011;2210;51.938;8.488;2024-03-07T14:59:18;19.27;;;10.30;;
4391;SDS011;2210;51.938;8.488;2024-03-07T15:03:20;18.87;;;11.73;;
4391;SDS011;2210;51.938;8.488;2024-03-07T15:07:21;23.40;;;11.23;;
4391;SDS011;2210;51.938;8.488;2024-03-07T15:11:26;20.97;;;10.97;;
4391;SDS011;2210;51.938;8.488;2024-03-07T15:15:31;21.43;;;10.23;;
4391;SDS011;2210;51.938;8.488;2024-03-07T15:19:31;18.90;;;10.97;;
4391;SDS011;2210;51.938;8.488;2024-03-07T15:23:32;16.50;;;9.10;;
4391;SDS011;2210;51.938;8.488;2024-03-07T15:27:32;15.67;;;9.87;;
4391;SDS011;2210;51.938;8.488;2024-03-07T15:31:36;17.53;;;9.80;;
4391;SDS011;2210;51.938;8.488;2024-03-07T15:35:36;18.53;;;11.00;;
4391;SDS011;2210;51.938;8.488;2024-03-07T15:39:36;16.80;;;9.77;;
4391;SDS011;2210;51.938;8.488;2024-03-07T15:43:38;15.97;;;9.03;;
4391;SDS011;2210;51.938;8.488;2024-03-07T15:47:38;14.07;;;9.13;;
4391;SDS011;2210;51.938;8.488;2024-03-07T15:51:42;14.83;;;9.70;;
4391;SDS011;2210;51.938;8.488;2024-03-07T15:55:45;14.13;;;9.73;;
4391;SDS011;2210;51.938;8.488;2024-03-07T15:59:45;15.37;;;9.70;;
4391;SDS011;2210;51.938;8.488;2024-03-07T16:03:46;18.40;;;9.70;;
4391;SDS011;2210;51.938;8.488;2024-03-07T16:07:46;12.93;;;8.20;;
4391;SDS011;2210;51.938;8.488;2024-03-07T16:11:46;15.57;;;8.77;;
4391;SDS011;2210;51.938;8.488;2024-03-07T16:15:47;16.10;;;9.00;;
4391;SDS011;2210;51.938;8.488;2024-03-07T16:19:47;14.57;;;8.90;;
4391;SDS011;2210;51.938;8.488;2024-03-07T16:23:49;11.67;;;8.23;;
4391;SDS011;2210;51.938;8.488;2024-03-07T16:27:51;12.00;;;8.47;;
4391;SDS011;2210;51.938;8.488;2024-03-07T16:31:53;13.27;;;7.93;;
4391;SDS011;2210;51.938;8.488;2024-03-07T16:35:53;12.82;;;7.78;;
4391;SDS011;2210;51.938;8.488;2024-03-07T16:39:54;16.33;;;9.13;;
4391;SDS011;2210;51.938;8.488;2024-03-07T16:43:54;14.63;;;7.93;;
4391;SDS011;2210;51.938;8.488;2024-03-07T16:47:54;12.60;;;7.28;;
4391;SDS011;2210;51.938;8.488;2024-03-07T16:51:56;11.13;;;7.57;;
4391;SDS011;2210;51.938;8.488;2024-03-07T16:55:57;10.53;;;7.30;;
4391;SDS011;2210;51.938;8.488;2024-03-07T17:00:00;10.67;;;7.50;;
4391;SDS011;2210;51.938;8.488;2024-03-07T17:04:05;10.10;;;8.17;;
4391;SDS011;2210;51.938;8.488;2024-03-07T17:08:11;9.20;;;7.00;;
4391;SDS011;2210;51.938;8.488;2024-03-07T17:12:18;9.67;;;7.20;;
4391;SDS011;2210;51.938;8.488;2024-03-07T17:16:23;8.33;;;6.43;;
4391;SDS011;2210;51.938;8.488;2024-03-07T17:20:25;10.30;;;7.37;;
4391;SDS011;2210;51.938;8.488;2024-03-07T17:24:25;8.27;;;5.97;;
4391;SDS011;2210;51.938;8.488;2024-03-07T17:28:25;8.60;;;6.40;;
4391;SDS011;2210;51.938;8.488;2024-03-07T17:32:26;10.43;;;6.57;;
4391;SDS011;2210;51.938;8.488;2024-03-07T17:36:28;9.53;;;6.20;;
4391;SDS011;2210;51.938;8.488;2024-03-07T17:40:38;11.40;;;8.07;;
4391;SDS011;2210;51.938;8.488;2024-03-07T17:44:42;9.07;;;5.93;;
4391;SDS011;2210;51.938;8.488;2024-03-07T17:48:43;10.00;;;6.97;;
4391;SDS011;2210;51.938;8.488;2024-03-07T17:52:43;10.13;;;6.80;;
4391;SDS011;2210;51.938;8.488;2024-03-07T17:56:45;9.57;;;7.23;;
4391;SDS011;2210;51.938;8.488;2024-03-07T18:00:52;9.25;;;6.90;;
4391;SDS011;2210;51.938;8.488;2024-03-07T18:04:53;11.80;;;6.90;;
4391;SDS011;2210;51.938;8.488;2024-03-07T18:08:53;11.32;;;7.60;;
4391;SDS011;2210;51.938;8.488;2024-03-07T18:12:56;9.88;;;6.88;;
4391;SDS011;2210;51.938;8.488;2024-03-07T18:16:56;10.70;;;8.40;;
4391;SDS011;2210;51.938;8.488;2024-03-07T18:20:56;8.98;;;6.80;;
4391;SDS011;2210;51.938;8.488;2024-03-07T18:24:57;11.30;;;7.20;;
4391;SDS011;2210;51.938;8.488;2024-03-07T18:28:57;9.68;;;7.28;;
4391;SDS011;2210;51.938;8.488;2024-03-07T18:33:13;9.73;;;7.37;;
4391;SDS011;2210;51.938;8.488;2024-03-07T18:37:19;9.87;;;7.67;;
4391;SDS011;2210;51.938;8.488;2024-03-07T18:41:22;10.00;;;6.83;;
4391;SDS011;2210;51.938;8.488;2024-03-07T18:45:31;10.73;;;7.77;;
4391;SDS011;2210;51.938;8.488;2024-03-07T18:49:35;10.33;;;6.93;;
4391;SDS011;2210;51.938;8.488;2024-03-07T18:53:39;8.47;;;6.67;;
4391;SDS011;2210;51.938;8.488;2024-03-07T18:57:45;9.10;;;7.70;;
4391;SDS011;2210;51.938;8.488;2024-03-07T19:01:49;10.90;;;7.30;;
4391;SDS011;2210;51.938;8.488;2024-03-07T19:05:55;10.43;;;7.10;;
4391;SDS011;2210;51.938;8.488;2024-03-07T19:09:55;11.43;;;7.40;;
4391;SDS011;2210;51.938;8.488;2024-03-07T19:13:59;7.30;;;6.10;;
4391;SDS011;2210;51.938;8.488;2024-03-07T19:18:03;10.33;;;7.00;;
4391;SDS011;2210;51.938;8.488;2024-03-07T19:22:09;8.10;;;6.47;;
4391;SDS011;2210;51.938;8.488;2024-03-07T19:26:10;7.90;;;7.07;;
4391;SDS011;2210;51.938;8.488;2024-03-07T19:30:12;10.93;;;6.50;;
4391;SDS011;2210;51.938;8.488;2024-03-07T19:34:34;9.30;;;6.33;;
4391;SDS011;2210;51.938;8.488;2024-03-07T19:38:37;9.67;;;6.73;;
4391;SDS011;2210;51.938;8.488;2024-03-07T19:42:38;7.47;;;5.93;;
4391;SDS011;2210;51.938;8.488;2024-03-07T19:46:40;10.10;;;6.83;;
4391;SDS011;2210;51.938;8.488;2024-03-07T19:50:42;9.10;;;7.77;;
4391;SDS011;2210;51.938;8.488;2024-03-07T19:54:43;8.60;;;6.70;;
4391;SDS011;2210;51.938;8.488;2024-03-07T19:58:49;9.98;;;6.68;;
4391;SDS011;2210;51.938;8.488;2024-03-07T20:02:52;9.83;;;7.13;;
4391;SDS011;2210;51.938;8.488;2024-03-07T20:06:55;8.33;;;6.87;;
4391;SDS011;2210;51.938;8.488;2024-03-07T20:11:01;14.10;;;7.80;;
4391;SDS011;2210;51.938;8.488;2024-03-07T20:15:04;11.63;;;7.63;;
4391;SDS011;2210;51.938;8.488;2024-03-07T20:19:09;12.30;;;7.47;;
4391;SDS011;2210;51.938;8.488;2024-03-07T20:23:09;10.20;;;7.23;;
4391;SDS011;2210;51.938;8.488;2024-03-07T20:27:09;8.18;;;6.70;;
4391;SDS011;2210;51.938;8.488;2024-03-07T20:31:19;10.60;;;6.70;;
4391;SDS011;2210;51.938;8.488;2024-03-07T20:35:20;9.03;;;6.37;;
4391;SDS011;2210;51.938;8.488;2024-03-07T20:39:20;9.90;;;7.20;;
4391;SDS011;2210;51.938;8.488;2024-03-07T20:43:26;11.13;;;7.13;;
4391;SDS011;2210;51.938;8.488;2024-03-07T20:47:30;8.73;;;7.30;;
4391;SDS011;2210;51.938;8.488;2024-03-07T20:51:33;9.30;;;7.10;;
4391;SDS011;2210;51.938;8.488;2024-03-07T20:55:36;12.10;;;7.37;;
4391;SDS011;2210;51.938;8.488;2024-03-07T20:59:42;10.53;;;6.90;;
4391;SDS011;2210;51.938;8.488;2024-03-07T21:03:43;9.50;;;7.27;;
4391;SDS011;2210;51.938;8.488;2024-03-07T21:07:44;8.40;;;7.00;;
4391;SDS011;2210;51.938;8.488;2024-03-07T21:11:48;13.07;;;7.07;;
4391;SDS011;2210;51.938;8.488;2024-03-07T21:15:54;9.83;;;7.50;;
4391;SDS011;2210;51.938;8.488;2024-03-07T21:19:58;10.33;;;7.23;;
4391;SDS011;2210;51.938;8.488;2024-03-07T21:23:58;8.00;;;7.20;;
4391;SDS011;2210;51.938;8.488;2024-03-07T21:27:58;8.23;;;6.88;;
4391;SDS011;2210;51.938;8.488;2024-03-07T21:31:59;8.30;;;7.47;;
4391;SDS011;2210;51.938;8.488;2024-03-07T21:36:11;9.97;;;7.10;;
4391;SDS011;2210;51.938;8.488;2024-03-07T21:40:15;13.17;;;7.20;;
4391;SDS011;2210;51.938;8.488;2024-03-07T21:44:21;8.13;;;6.67;;
4391;SDS011;2210;51.938;8.488;2024-03-07T21:48:22;10.27;;;7.40;;
4391;SDS011;2210;51.938;8.488;2024-03-07T21:52:24;9.10;;;7.27;;
4391;SDS011;2210;51.938;8.488;2024-03-07T21:56:28;9.97;;;7.00;;
4391;SDS011;2210;51.938;8.488;2024-03-07T22:00:28;8.13;;;6.60;;
4391;SDS011;2210;51.938;8.488;2024-03-07T22:04:29;24.73;;;7.20;;
4391;SDS011;2210;51.938;8.488;2024-03-07T22:08:30;7.47;;;6.40;;
4391;SDS011;2210;51.938;8.488;2024-03-07T22:12:31;9.23;;;7.17;;
4391;SDS011;2210;51.938;8.488;2024-03-07T22:16:34;13.25;;;7.75;;
4391;SDS011;2210;51.938;8.488;2024-03-07T22:20:38;13.70;;;7.57;;
4391;SDS011;2210;51.938;8.488;2024-03-07T22:24:38;12.83;;;7.37;;
4391;SDS011;2210;51.938;8.488;2024-03-07T22:28:48;9.05;;;7.55;;
4391;SDS011;2210;51.938;8.488;2024-03-07T22:32:51;11.67;;;7.13;;
4391;SDS011;2210;51.938;8.488;2024-03-07T22:36:54;11.30;;;7.83;;
4391;SDS011;2210;51.938;8.488;2024-03-07T22:41:07;11.23;;;7.73;;
4391;SDS011;2210;51.938;8.488;2024-03-07T22:45:11;11.50;;;7.60;;
4391;SDS011;2210;51.938;8.488;2024-03-07T22:49:13;9.67;;;8.47;;
4391;SDS011;2210;51.938;8.488;2024-03-07T22:53:24;10.57;;;8.73;;
4391;SDS011;2210;51.938;8.488;2024-03-07T22:57:25;10.73;;;7.77;;
4391;SDS011;2210;51.938;8.488;2024-03-07T23:01:31;11.05;;;8.48;;
4391;SDS011;2210;51.938;8.488;2024-03-07T23:05:35;12.93;;;9.53;;
4391;SDS011;2210;51.938;8.488;2024-03-07T23:09:35;9.93;;;7.27;;
4391;SDS011;2210;51.938;8.488;2024-03-07T23:17:59;12.23;;;8.33;;
4391;SDS011;2210;51.938;8.488;2024-03-07T23:22:02;9.27;;;8.07;;
4391;SDS011;2210;51.938;8.488;2024-03-07T23:26:07;13.87;;;8.67;;
4391;SDS011;2210;51.938;8.488;2024-03-07T23:30:08;13.37;;;9.10;;
4391;SDS011;2210;51.938;8.488;2024-03-07T23:34:28;11.43;;;9.10;;
4391;SDS011;2210;51.938;8.488;2024-03-07T23:38:29;12.70;;;9.30;;
4391;SDS011;2210;51.938;8.488;2024-03-07T23:42:29;12.52;;;9.38;;
4391;SDS011;2210;51.938;8.488;2024-03-07T23:46:31;11.67;;;8.30;;
4391;SDS011;2210;51.938;8.488;2024-03-07T23:50:35;12.43;;;9.20;;
4391;SDS011;2210;51.938;8.488;2024-03-07T23:54:42;11.20;;;8.50;;
4391;SDS011;2210;51.938;8.488;2024-03-07T23:58:42;10.67;;;8.30;;
